Terminal Aerodrome Forecast
Issued by NWS Duluth, MN

Home | Current Version | Previous Version | Text Only | Print | Product List | Glossary On
Versions: 1 2 3 4 5 6 7 8 9 10 11 12 13 14 15 16 17 18 19 20 21 22 23 24 25 26 27 28 29 30 31 32
000
FTUS43 KDLH 271300 AAA
TAFDLH
TAF AMD
KDLH 271300Z 2713/2812 30009G13KT P6SM FEW120
     FM271900 31012G20KT P6SM VCTS SCT060CB
     FM280400 VRB03KT P6SM FEW050
     FM280800 05009G12KT 5SM BR SCT009=

USA.gov is the U.S. government's official web portal to all federal, state and local government web resources and services.